sensor_id;sensor_type;location;lat;lon;timestamp;noise_LAeq;noise_LA_min;noise_LA_max;noise_LA01;noise_LA95
74234;Laerm;62591;55.764;37.718;2023-05-07T00:02:33;40.08;34.21;52.53;;
74234;Laerm;62591;55.764;37.718;2023-05-07T00:05:03;36.67;33.40;42.92;;
74234;Laerm;62591;55.764;37.718;2023-05-07T00:07:32;39.50;33.25;54.11;;
74234;Laerm;62591;55.764;37.718;2023-05-07T00:10:03;44.21;33.90;52.01;;
74234;Laerm;62591;55.764;37.718;2023-05-07T00:12:33;41.44;34.69;53.30;;
74234;Laerm;62591;55.764;37.718;2023-05-07T00:15:02;43.34;35.36;53.22;;
74234;Laerm;62591;55.764;37.718;2023-05-07T00:17:33;46.64;35.78;58.45;;
74234;Laerm;62591;55.764;37.718;2023-05-07T00:20:02;39.71;33.93;49.50;;
74234;Laerm;62591;55.764;37.718;2023-05-07T00:22:33;41.48;34.38;53.37;;
74234;Laerm;62591;55.764;37.718;2023-05-07T00:25:03;40.51;34.19;52.30;;
74234;Laerm;62591;55.764;37.718;2023-05-07T00:27:32;40.87;33.70;48.22;;
74234;Laerm;62591;55.764;37.718;2023-05-07T00:30:01;38.90;33.76;48.08;;
74234;Laerm;62591;55.764;37.718;2023-05-07T00:32:34;43.51;34.71;59.19;;
74234;Laerm;62591;55.764;37.718;2023-05-07T00:35:04;47.51;34.99;65.64;;
74234;Laerm;62591;55.764;37.718;2023-05-07T00:37:33;39.42;34.11;58.90;;
74234;Laerm;62591;55.764;37.718;2023-05-07T00:40:06;44.95;34.99;63.39;;
74234;Laerm;62591;55.764;37.718;2023-05-07T00:42:35;42.01;35.74;50.90;;
74234;Laerm;62591;55.764;37.718;2023-05-07T00:45:05;41.49;34.25;53.09;;
74234;Laerm;62591;55.764;37.718;2023-05-07T00:47:34;49.82;34.54;66.56;;
74234;Laerm;62591;55.764;37.718;2023-05-07T00:50:05;41.74;35.38;50.22;;
74234;Laerm;62591;55.764;37.718;2023-05-07T00:52:34;41.38;34.17;53.55;;
74234;Laerm;62591;55.764;37.718;2023-05-07T00:55:06;41.57;34.43;50.30;;
74234;Laerm;62591;55.764;37.718;2023-05-07T00:57:36;44.54;35.49;51.57;;
74234;Laerm;62591;55.764;37.718;2023-05-07T01:00:06;42.23;36.18;50.68;;
74234;Laerm;62591;55.764;37.718;2023-05-07T01:02:36;40.98;34.82;62.74;;
74234;Laerm;62591;55.764;37.718;2023-05-07T01:05:05;38.85;34.10;50.22;;
74234;Laerm;62591;55.764;37.718;2023-05-07T01:07:37;38.65;34.45;48.06;;
74234;Laerm;62591;55.764;37.718;2023-05-07T01:10:09;37.76;34.24;49.70;;
74234;Laerm;62591;55.764;37.718;2023-05-07T01:12:40;39.98;34.76;53.41;;
74234;Laerm;62591;55.764;37.718;2023-05-07T01:15:10;39.57;34.53;50.70;;
74234;Laerm;62591;55.764;37.718;2023-05-07T01:17:39;38.80;34.67;47.78;;
74234;Laerm;62591;55.764;37.718;2023-05-07T01:20:15;37.39;33.75;44.04;;
74234;Laerm;62591;55.764;37.718;2023-05-07T01:22:46;43.83;34.64;61.10;;
74234;Laerm;62591;55.764;37.718;2023-05-07T01:25:15;42.98;34.97;56.37;;
74234;Laerm;62591;55.764;37.718;2023-05-07T01:27:50;42.91;34.45;56.42;;
74234;Laerm;62591;55.764;37.718;2023-05-07T01:30:22;42.73;35.41;56.42;;
74234;Laerm;62591;55.764;37.718;2023-05-07T01:32:55;46.50;35.37;58.16;;
74234;Laerm;62591;55.764;37.718;2023-05-07T01:35:29;46.80;34.81;62.03;;
74234;Laerm;62591;55.764;37.718;2023-05-07T01:38:00;44.00;34.69;60.34;;
74234;Laerm;62591;55.764;37.718;2023-05-07T01:40:31;41.67;34.79;54.15;;
74234;Laerm;62591;55.764;37.718;2023-05-07T01:43:02;44.44;35.13;55.10;;
74234;Laerm;62591;55.764;37.718;2023-05-07T01:45:34;45.31;34.89;53.47;;
74234;Laerm;62591;55.764;37.718;2023-05-07T01:48:03;42.38;35.10;50.96;;
74234;Laerm;62591;55.764;37.718;2023-05-07T01:50:32;45.16;36.15;54.75;;
74234;Laerm;62591;55.764;37.718;2023-05-07T01:53:03;40.35;34.91;51.62;;
74234;Laerm;62591;55.764;37.718;2023-05-07T01:55:32;41.68;35.91;51.71;;
74234;Laerm;62591;55.764;37.718;2023-05-07T01:58:01;40.89;35.81;49.88;;
74234;Laerm;62591;55.764;37.718;2023-05-07T02:00:29;42.19;35.45;50.23;;
74234;Laerm;62591;55.764;37.718;2023-05-07T02:02:58;39.48;35.05;51.11;;
74234;Laerm;62591;55.764;37.718;2023-05-07T02:05:36;43.08;35.29;51.77;;
74234;Laerm;62591;55.764;37.718;2023-05-07T02:08:13;41.61;35.75;50.53;;
74234;Laerm;62591;55.764;37.718;2023-05-07T02:10:42;46.81;37.56;53.94;;
74234;Laerm;62591;55.764;37.718;2023-05-07T02:13:14;42.50;36.71;49.32;;
74234;Laerm;62591;55.764;37.718;2023-05-07T02:16:08;40.62;35.25;51.13;;
74234;Laerm;62591;55.764;37.718;2023-05-07T02:18:38;41.53;34.28;50.34;;
74234;Laerm;62591;55.764;37.718;2023-05-07T02:21:07;42.72;35.07;55.00;;
74234;Laerm;62591;55.764;37.718;2023-05-07T02:23:37;38.88;34.67;47.47;;
74234;Laerm;62591;55.764;37.718;2023-05-07T02:26:06;42.06;33.99;52.55;;
74234;Laerm;62591;55.764;37.718;2023-05-07T02:28:35;41.64;35.50;49.86;;
74234;Laerm;62591;55.764;37.718;2023-05-07T02:31:05;49.26;37.41;60.51;;
74234;Laerm;62591;55.764;37.718;2023-05-07T02:33:34;41.76;35.08;51.55;;
74234;Laerm;62591;55.764;37.718;2023-05-07T02:36:07;44.32;35.80;57.29;;
74234;Laerm;62591;55.764;37.718;2023-05-07T02:38:43;45.22;34.79;59.87;;
74234;Laerm;62591;55.764;37.718;2023-05-07T02:41:11;53.26;36.38;70.98;;
74234;Laerm;62591;55.764;37.718;2023-05-07T02:43:40;47.83;35.89;60.28;;
74234;Laerm;62591;55.764;37.718;2023-05-07T02:46:09;44.06;36.31;59.95;;
74234;Laerm;62591;55.764;37.718;2023-05-07T02:48:42;43.84;36.54;53.86;;
74234;Laerm;62591;55.764;37.718;2023-05-07T02:51:11;43.73;35.52;52.26;;
74234;Laerm;62591;55.764;37.718;2023-05-07T02:53:43;44.71;37.20;53.92;;
74234;Laerm;62591;55.764;37.718;2023-05-07T02:56:11;46.05;36.12;59.34;;
74234;Laerm;62591;55.764;37.718;2023-05-07T02:58:40;44.56;36.75;54.13;;
74234;Laerm;62591;55.764;37.718;2023-05-07T03:01:10;43.07;37.05;52.74;;
74234;Laerm;62591;55.764;37.718;2023-05-07T03:03:46;44.21;36.50;55.37;;
74234;Laerm;62591;55.764;37.718;2023-05-07T03:06:15;44.84;35.66;54.59;;
74234;Laerm;62591;55.764;37.718;2023-05-07T03:08:45;43.27;34.72;60.70;;
74234;Laerm;62591;55.764;37.718;2023-05-07T03:11:13;43.20;35.27;61.55;;
74234;Laerm;62591;55.764;37.718;2023-05-07T03:13:42;45.63;35.91;54.66;;
74234;Laerm;62591;55.764;37.718;2023-05-07T03:16:11;44.70;36.62;55.91;;
74234;Laerm;62591;55.764;37.718;2023-05-07T03:18:39;46.81;36.72;60.06;;
74234;Laerm;62591;55.764;37.718;2023-05-07T03:21:08;42.81;34.31;53.69;;
74234;Laerm;62591;55.764;37.718;2023-05-07T03:23:36;42.05;35.25;65.75;;
74234;Laerm;62591;55.764;37.718;2023-05-07T03:26:06;42.86;35.57;51.96;;
74234;Laerm;62591;55.764;37.718;2023-05-07T03:28:35;43.83;34.79;56.48;;
74234;Laerm;62591;55.764;37.718;2023-05-07T03:31:07;43.60;35.06;57.35;;
74234;Laerm;62591;55.764;37.718;2023-05-07T03:33:39;45.17;35.98;60.18;;
74234;Laerm;62591;55.764;37.718;2023-05-07T03:36:17;45.58;37.01;60.18;;
74234;Laerm;62591;55.764;37.718;2023-05-07T03:38:45;39.69;34.90;47.01;;
74234;Laerm;62591;55.764;37.718;2023-05-07T03:41:19;43.06;35.67;51.40;;
74234;Laerm;62591;55.764;37.718;2023-05-07T03:43:48;44.00;36.09;52.83;;
74234;Laerm;62591;55.764;37.718;2023-05-07T03:46:17;42.84;34.76;52.92;;
74234;Laerm;62591;55.764;37.718;2023-05-07T03:48:45;41.39;35.76;51.86;;
74234;Laerm;62591;55.764;37.718;2023-05-07T03:51:16;44.44;35.92;56.97;;
74234;Laerm;62591;55.764;37.718;2023-05-07T03:53:45;48.12;36.83;59.48;;
74234;Laerm;62591;55.764;37.718;2023-05-07T03:56:13;52.23;42.28;67.22;;
74234;Laerm;62591;55.764;37.718;2023-05-07T03:58:47;46.81;36.09;58.82;;
74234;Laerm;62591;55.764;37.718;2023-05-07T04:01:15;45.89;36.99;56.00;;
74234;Laerm;62591;55.764;37.718;2023-05-07T04:03:44;43.56;38.31;49.40;;
74234;Laerm;62591;55.764;37.718;2023-05-07T04:06:15;44.78;37.83;51.61;;
74234;Laerm;62591;55.764;37.718;2023-05-07T04:08:46;45.90;36.97;54.36;;
74234;Laerm;62591;55.764;37.718;2023-05-07T04:11:15;42.56;35.96;53.02;;
74234;Laerm;62591;55.764;37.718;2023-05-07T04:13:46;44.16;36.61;50.59;;
74234;Laerm;62591;55.764;37.718;2023-05-07T04:16:18;48.10;39.80;55.01;;
74234;Laerm;62591;55.764;37.718;2023-05-07T04:18:47;46.64;40.36;63.07;;
74234;Laerm;62591;55.764;37.718;2023-05-07T04:21:16;47.37;37.11;58.66;;
74234;Laerm;62591;55.764;37.718;2023-05-07T04:23:46;44.72;37.84;51.68;;
74234;Laerm;62591;55.764;37.718;2023-05-07T04:26:14;42.39;35.87;52.72;;
74234;Laerm;62591;55.764;37.718;2023-05-07T04:28:46;44.33;35.02;56.21;;
74234;Laerm;62591;55.764;37.718;2023-05-07T04:31:15;45.22;36.64;52.86;;
74234;Laerm;62591;55.764;37.718;2023-05-07T04:33:47;47.72;37.86;57.20;;
74234;Laerm;62591;55.764;37.718;2023-05-07T04:36:16;43.98;36.85;61.21;;
74234;Laerm;62591;55.764;37.718;2023-05-07T04:38:54;44.55;36.72;62.90;;
74234;Laerm;62591;55.764;37.718;2023-05-07T04:41:23;45.54;38.04;54.46;;
74234;Laerm;62591;55.764;37.718;2023-05-07T04:43:53;42.76;35.01;53.41;;
74234;Laerm;62591;55.764;37.718;2023-05-07T04:46:24;43.70;36.57;53.42;;
74234;Laerm;62591;55.764;37.718;2023-05-07T04:48:55;44.80;34.80;60.25;;
74234;Laerm;62591;55.764;37.718;2023-05-07T04:51:24;45.29;35.49;58.71;;
74234;Laerm;62591;55.764;37.718;2023-05-07T04:53:53;47.88;36.68;61.30;;
74234;Laerm;62591;55.764;37.718;2023-05-07T04:56:21;47.54;36.68;59.40;;
74234;Laerm;62591;55.764;37.718;2023-05-07T04:58:50;45.76;37.25;57.43;;
74234;Laerm;62591;55.764;37.718;2023-05-07T05:01:22;47.77;39.40;60.08;;
74234;Laerm;62591;55.764;37.718;2023-05-07T05:03:51;46.59;38.59;62.27;;
74234;Laerm;62591;55.764;37.718;2023-05-07T05:06:20;50.51;37.06;62.96;;
74234;Laerm;62591;55.764;37.718;2023-05-07T05:08:49;44.22;36.65;61.03;;
74234;Laerm;62591;55.764;37.718;2023-05-07T05:11:18;44.78;37.46;62.79;;
74234;Laerm;62591;55.764;37.718;2023-05-07T05:13:47;48.57;36.88;57.90;;
74234;Laerm;62591;55.764;37.718;2023-05-07T05:16:19;43.52;36.28;53.15;;
74234;Laerm;62591;55.764;37.718;2023-05-07T05:18:50;45.16;36.21;55.88;;
74234;Laerm;62591;55.764;37.718;2023-05-07T05:21:19;47.75;38.67;60.80;;
74234;Laerm;62591;55.764;37.718;2023-05-07T05:23:51;49.91;39.01;61.00;;
74234;Laerm;62591;55.764;37.718;2023-05-07T05:26:23;46.76;40.53;55.46;;
74234;Laerm;62591;55.764;37.718;2023-05-07T05:28:52;45.44;38.70;54.11;;
74234;Laerm;62591;55.764;37.718;2023-05-07T05:31:23;45.90;37.58;65.17;;
74234;Laerm;62591;55.764;37.718;2023-05-07T05:33:53;45.11;38.90;63.96;;
74234;Laerm;62591;55.764;37.718;2023-05-07T05:36:21;48.14;38.67;59.18;;
74234;Laerm;62591;55.764;37.718;2023-05-07T05:38:53;46.32;40.34;54.02;;
74234;Laerm;62591;55.764;37.718;2023-05-07T05:41:22;48.75;43.31;55.77;;
74234;Laerm;62591;55.764;37.718;2023-05-07T05:43:51;48.99;42.41;55.70;;
74234;Laerm;62591;55.764;37.718;2023-05-07T05:46:21;50.50;41.65;62.48;;
74234;Laerm;62591;55.764;37.718;2023-05-07T05:48:51;46.90;40.33;61.14;;
74234;Laerm;62591;55.764;37.718;2023-05-07T05:51:21;48.67;41.04;68.54;;
74234;Laerm;62591;55.764;37.718;2023-05-07T05:53:50;49.16;41.44;64.38;;
74234;Laerm;62591;55.764;37.718;2023-05-07T05:56:19;49.37;38.93;76.53;;
74234;Laerm;62591;55.764;37.718;2023-05-07T05:58:48;46.77;40.21;57.56;;
74234;Laerm;62591;55.764;37.718;2023-05-07T06:01:17;47.64;40.13;64.27;;
74234;Laerm;62591;55.764;37.718;2023-05-07T06:03:48;49.44;39.50;75.42;;
74234;Laerm;62591;55.764;37.718;2023-05-07T06:06:17;49.72;46.61;58.53;;
74234;Laerm;62591;55.764;37.718;2023-05-07T06:08:47;51.61;40.85;66.06;;
74234;Laerm;62591;55.764;37.718;2023-05-07T06:11:21;49.41;43.15;62.05;;
74234;Laerm;62591;55.764;37.718;2023-05-07T06:13:50;46.35;39.18;56.37;;
74234;Laerm;62591;55.764;37.718;2023-05-07T06:16:18;47.13;40.59;55.56;;
74234;Laerm;62591;55.764;37.718;2023-05-07T06:18:47;49.61;39.85;69.85;;
74234;Laerm;62591;55.764;37.718;2023-05-07T06:21:16;48.93;41.00;59.61;;
74234;Laerm;62591;55.764;37.718;2023-05-07T06:23:46;47.33;41.62;58.80;;
74234;Laerm;62591;55.764;37.718;2023-05-07T06:26:15;50.90;41.34;69.62;;
74234;Laerm;62591;55.764;37.718;2023-05-07T06:28:46;46.00;40.94;59.18;;
74234;Laerm;62591;55.764;37.718;2023-05-07T06:31:17;45.63;38.97;54.46;;
74234;Laerm;62591;55.764;37.718;2023-05-07T06:33:53;47.30;39.57;53.63;;
74234;Laerm;62591;55.764;37.718;2023-05-07T06:36:25;46.85;41.07;55.30;;
74234;Laerm;62591;55.764;37.718;2023-05-07T06:38:58;47.54;42.21;55.64;;
74234;Laerm;62591;55.764;37.718;2023-05-07T06:41:27;50.16;42.87;60.47;;
74234;Laerm;62591;55.764;37.718;2023-05-07T06:44:00;46.52;39.76;55.11;;
74234;Laerm;62591;55.764;37.718;2023-05-07T06:46:43;45.96;40.31;53.79;;
74234;Laerm;62591;55.764;37.718;2023-05-07T06:49:13;51.22;41.26;65.11;;
74234;Laerm;62591;55.764;37.718;2023-05-07T06:51:42;49.14;40.50;61.20;;
74234;Laerm;62591;55.764;37.718;2023-05-07T06:54:12;54.69;40.11;66.39;;
74234;Laerm;62591;55.764;37.718;2023-05-07T06:56:43;66.89;41.83;82.75;;
74234;Laerm;62591;55.764;37.718;2023-05-07T06:59:11;47.42;40.38;59.76;;
74234;Laerm;62591;55.764;37.718;2023-05-07T07:01:41;52.02;41.34;64.33;;
74234;Laerm;62591;55.764;37.718;2023-05-07T07:04:11;48.30;40.29;66.73;;
74234;Laerm;62591;55.764;37.718;2023-05-07T07:06:41;49.67;41.17;60.42;;
74234;Laerm;62591;55.764;37.718;2023-05-07T07:09:14;47.15;39.99;55.61;;
74234;Laerm;62591;55.764;37.718;2023-05-07T07:11:43;48.26;40.67;58.49;;
74234;Laerm;62591;55.764;37.718;2023-05-07T07:14:12;49.61;43.65;57.77;;
74234;Laerm;62591;55.764;37.718;2023-05-07T07:16:46;48.54;41.92;55.98;;
74234;Laerm;62591;55.764;37.718;2023-05-07T07:19:17;48.32;39.87;66.86;;
74234;Laerm;62591;55.764;37.718;2023-05-07T07:21:49;49.19;43.15;60.53;;
74234;Laerm;62591;55.764;37.718;2023-05-07T07:24:20;51.07;43.30;61.30;;
74234;Laerm;62591;55.764;37.718;2023-05-07T07:26:52;49.96;42.88;57.77;;
74234;Laerm;62591;55.764;37.718;2023-05-07T07:29:23;48.91;43.09;56.59;;
74234;Laerm;62591;55.764;37.718;2023-05-07T07:31:54;48.09;41.92;58.20;;
74234;Laerm;62591;55.764;37.718;2023-05-07T07:34:23;48.28;40.92;55.47;;
74234;Laerm;62591;55.764;37.718;2023-05-07T07:36:52;46.24;41.02;55.97;;
74234;Laerm;62591;55.764;37.718;2023-05-07T07:39:22;49.02;40.95;57.67;;
74234;Laerm;62591;55.764;37.718;2023-05-07T07:41:53;48.69;41.41;61.58;;
74234;Laerm;62591;55.764;37.718;2023-05-07T07:44:22;45.92;40.27;56.59;;
74234;Laerm;62591;55.764;37.718;2023-05-07T07:46:56;47.43;41.89;58.90;;
74234;Laerm;62591;55.764;37.718;2023-05-07T07:49:26;51.80;43.03;65.89;;
74234;Laerm;62591;55.764;37.718;2023-05-07T07:51:57;47.44;41.58;55.78;;
74234;Laerm;62591;55.764;37.718;2023-05-07T07:54:28;48.47;40.45;58.51;;
74234;Laerm;62591;55.764;37.718;2023-05-07T07:56:58;49.13;41.36;57.87;;
74234;Laerm;62591;55.764;37.718;2023-05-07T07:59:29;46.88;41.66;56.21;;
74234;Laerm;62591;55.764;37.718;2023-05-07T08:01:58;47.14;41.43;54.96;;
74234;Laerm;62591;55.764;37.718;2023-05-07T08:04:29;46.32;40.66;52.60;;
74234;Laerm;62591;55.764;37.718;2023-05-07T08:07:03;49.76;40.00;66.01;;
74234;Laerm;62591;55.764;37.718;2023-05-07T08:09:37;49.22;41.28;63.59;;
74234;Laerm;62591;55.764;37.718;2023-05-07T08:12:07;51.83;45.55;64.56;;
74234;Laerm;62591;55.764;37.718;2023-05-07T08:14:36;49.09;44.24;60.31;;
74234;Laerm;62591;55.764;37.718;2023-05-07T08:17:06;49.64;41.09;63.47;;
74234;Laerm;62591;55.764;37.718;2023-05-07T08:19:37;49.74;41.88;58.94;;
74234;Laerm;62591;55.764;37.718;2023-05-07T08:22:10;47.51;39.85;63.83;;
74234;Laerm;62591;55.764;37.718;2023-05-07T08:24:40;48.79;41.22;59.06;;
74234;Laerm;62591;55.764;37.718;2023-05-07T08:27:10;47.70;40.91;54.34;;
74234;Laerm;62591;55.764;37.718;2023-05-07T08:29:41;47.67;41.15;56.79;;
74234;Laerm;62591;55.764;37.718;2023-05-07T08:32:10;49.26;40.51;59.04;;
74234;Laerm;62591;55.764;37.718;2023-05-07T08:34:38;46.64;40.49;54.42;;
74234;Laerm;62591;55.764;37.718;2023-05-07T08:37:07;50.58;41.34;63.10;;
74234;Laerm;62591;55.764;37.718;2023-05-07T08:39:36;46.36;39.51;54.99;;
74234;Laerm;62591;55.764;37.718;2023-05-07T08:42:11;46.69;40.04;57.41;;
74234;Laerm;62591;55.764;37.718;2023-05-07T08:44:45;51.98;43.62;64.64;;
74234;Laerm;62591;55.764;37.718;2023-05-07T08:47:17;47.88;39.53;57.74;;
74234;Laerm;62591;55.764;37.718;2023-05-07T08:49:49;48.52;41.30;56.23;;
74234;Laerm;62591;55.764;37.718;2023-05-07T08:52:19;48.72;40.03;56.14;;
74234;Laerm;62591;55.764;37.718;2023-05-07T08:54:48;46.67;38.54;53.82;;
74234;Laerm;62591;55.764;37.718;2023-05-07T08:57:18;48.40;39.87;58.21;;
74234;Laerm;62591;55.764;37.718;2023-05-07T08:59:49;48.07;41.09;55.09;;
74234;Laerm;62591;55.764;37.718;2023-05-07T09:02:18;49.22;40.80;62.32;;
74234;Laerm;62591;55.764;37.718;2023-05-07T09:04:47;47.35;39.81;63.49;;
74234;Laerm;62591;55.764;37.718;2023-05-07T09:07:16;49.59;41.19;66.44;;
74234;Laerm;62591;55.764;37.718;2023-05-07T09:09:46;48.18;39.67;63.73;;
74234;Laerm;62591;55.764;37.718;2023-05-07T09:12:15;47.90;41.00;57.50;;
74234;Laerm;62591;55.764;37.718;2023-05-07T09:14:45;48.03;42.49;60.83;;
74234;Laerm;62591;55.764;37.718;2023-05-07T09:17:15;50.52;42.78;64.00;;
74234;Laerm;62591;55.764;37.718;2023-05-07T09:19:44;48.09;41.08;63.60;;
74234;Laerm;62591;55.764;37.718;2023-05-07T09:22:14;47.16;39.61;63.30;;
74234;Laerm;62591;55.764;37.718;2023-05-07T09:24:53;46.22;40.00;52.63;;
74234;Laerm;62591;55.764;37.718;2023-05-07T09:27:25;49.00;40.09;57.58;;
74234;Laerm;62591;55.764;37.718;2023-05-07T09:29:57;50.99;43.17;64.71;;
74234;Laerm;62591;55.764;37.718;2023-05-07T09:32:25;50.87;41.50;64.38;;
74234;Laerm;62591;55.764;37.718;2023-05-07T09:34:55;46.71;39.46;54.38;;
74234;Laerm;62591;55.764;37.718;2023-05-07T09:37:26;50.25;41.97;63.27;;
74234;Laerm;62591;55.764;37.718;2023-05-07T09:39:55;48.94;40.66;61.28;;
74234;Laerm;62591;55.764;37.718;2023-05-07T09:42:26;50.66;41.54;67.72;;
74234;Laerm;62591;55.764;37.718;2023-05-07T09:45:00;48.82;40.32;67.96;;
74234;Laerm;62591;55.764;37.718;2023-05-07T09:47:39;48.24;39.59;54.62;;
74234;Laerm;62591;55.764;37.718;2023-05-07T09:50:10;49.56;40.87;60.73;;
74234;Laerm;62591;55.764;37.718;2023-05-07T09:52:40;47.22;38.93;55.26;;
74234;Laerm;62591;55.764;37.718;2023-05-07T09:55:10;47.92;38.83;60.70;;
74234;Laerm;62591;55.764;37.718;2023-05-07T09:57:42;48.11;38.83;56.86;;
74234;Laerm;62591;55.764;37.718;2023-05-07T10:00:14;49.43;38.95;62.61;;
74234;Laerm;62591;55.764;37.718;2023-05-07T10:02:49;47.21;38.63;59.60;;
74234;Laerm;62591;55.764;37.718;2023-05-07T10:05:27;46.31;37.55;61.64;;
74234;Laerm;62591;55.764;37.718;2023-05-07T10:07:59;50.31;39.38;64.07;;
74234;Laerm;62591;55.764;37.718;2023-05-07T10:10:33;50.37;40.33;63.71;;
74234;Laerm;62591;55.764;37.718;2023-05-07T10:13:02;50.73;41.40;67.42;;
74234;Laerm;62591;55.764;37.718;2023-05-07T10:15:41;47.07;40.33;56.59;;
74234;Laerm;62591;55.764;37.718;2023-05-07T10:18:11;50.00;39.51;65.34;;
74234;Laerm;62591;55.764;37.718;2023-05-07T10:20:43;46.63;39.91;55.65;;
74234;Laerm;62591;55.764;37.718;2023-05-07T10:23:19;46.28;38.20;55.29;;
74234;Laerm;62591;55.764;37.718;2023-05-07T10:25:51;48.05;39.59;56.91;;
74234;Laerm;62591;55.764;37.718;2023-05-07T10:28:31;48.97;40.49;57.27;;
74234;Laerm;62591;55.764;37.718;2023-05-07T10:31:18;47.07;39.90;54.53;;
74234;Laerm;62591;55.764;37.718;2023-05-07T10:33:52;46.93;38.43;58.47;;
74234;Laerm;62591;55.764;37.718;2023-05-07T10:36:23;47.62;40.08;56.04;;
74234;Laerm;62591;55.764;37.718;2023-05-07T10:38:53;46.43;39.51;54.85;;
74234;Laerm;62591;55.764;37.718;2023-05-07T10:41:22;47.64;39.83;58.63;;
74234;Laerm;62591;55.764;37.718;2023-05-07T10:43:51;47.24;40.18;56.25;;
74234;Laerm;62591;55.764;37.718;2023-05-07T10:46:29;48.62;40.56;55.33;;
74234;Laerm;62591;55.764;37.718;2023-05-07T10:49:09;48.93;42.58;54.91;;
74234;Laerm;62591;55.764;37.718;2023-05-07T10:51:45;47.84;40.93;65.64;;
74234;Laerm;62591;55.764;37.718;2023-05-07T10:54:23;48.45;39.96;55.09;;
74234;Laerm;62591;55.764;37.718;2023-05-07T10:57:34;66.69;41.20;85.88;;
74234;Laerm;62591;55.764;37.718;2023-05-07T11:00:41;47.34;39.71;63.70;;
74234;Laerm;62591;55.764;37.718;2023-05-07T11:03:17;47.25;39.77;55.63;;
74234;Laerm;62591;55.764;37.718;2023-05-07T11:06:10;50.81;39.99;61.19;;
74234;Laerm;62591;55.764;37.718;2023-05-07T11:08:54;47.51;41.72;58.90;;
74234;Laerm;62591;55.764;37.718;2023-05-07T11:11:47;47.24;39.28;60.23;;
74234;Laerm;62591;55.764;37.718;2023-05-07T11:14:50;46.99;40.67;54.86;;
74234;Laerm;62591;55.764;37.718;2023-05-07T11:17:33;47.12;38.56;57.34;;
74234;Laerm;62591;55.764;37.718;2023-05-07T11:20:09;49.30;41.14;59.88;;
74234;Laerm;62591;55.764;37.718;2023-05-07T11:22:44;49.14;42.10;62.57;;
74234;Laerm;62591;55.764;37.718;2023-05-07T11:25:26;48.06;40.63;61.97;;
74234;Laerm;62591;55.764;37.718;2023-05-07T11:28:08;49.98;40.57;59.59;;
74234;Laerm;62591;55.764;37.718;2023-05-07T11:30:44;47.70;40.82;56.35;;
74234;Laerm;62591;55.764;37.718;2023-05-07T11:33:17;47.90;40.09;66.82;;
74234;Laerm;62591;55.764;37.718;2023-05-07T11:35:50;50.01;40.82;63.90;;
74234;Laerm;62591;55.764;37.718;2023-05-07T11:38:25;48.12;40.81;58.01;;
74234;Laerm;62591;55.764;37.718;2023-05-07T11:40:55;47.09;40.43;53.92;;
74234;Laerm;62591;55.764;37.718;2023-05-07T11:43:24;48.37;41.78;58.93;;
74234;Laerm;62591;55.764;37.718;2023-05-07T11:45:53;47.56;40.46;54.02;;
74234;Laerm;62591;55.764;37.718;2023-05-07T11:48:22;47.62;39.90;54.99;;
74234;Laerm;62591;55.764;37.718;2023-05-07T11:50:52;49.18;43.18;57.38;;
74234;Laerm;62591;55.764;37.718;2023-05-07T11:53:25;47.26;41.76;53.25;;
74234;Laerm;62591;55.764;37.718;2023-05-07T11:55:55;50.82;44.12;59.27;;
74234;Laerm;62591;55.764;37.718;2023-05-07T11:58:24;48.84;41.87;55.82;;
74234;Laerm;62591;55.764;37.718;2023-05-07T12:00:53;49.08;41.95;59.47;;
74234;Laerm;62591;55.764;37.718;2023-05-07T12:03:22;48.00;38.45;59.51;;
74234;Laerm;62591;55.764;37.718;2023-05-07T12:05:52;47.28;39.18;61.76;;
74234;Laerm;62591;55.764;37.718;2023-05-07T12:08:21;50.14;40.42;59.15;;
74234;Laerm;62591;55.764;37.718;2023-05-07T12:10:50;48.36;39.71;60.23;;
74234;Laerm;62591;55.764;37.718;2023-05-07T12:13:20;49.49;39.76;72.18;;
74234;Laerm;62591;55.764;37.718;2023-05-07T12:15:50;45.84;37.77;53.46;;
74234;Laerm;62591;55.764;37.718;2023-05-07T12:18:19;45.08;37.66;52.59;;
74234;Laerm;62591;55.764;37.718;2023-05-07T12:20:49;51.47;40.23;68.49;;
74234;Laerm;62591;55.764;37.718;2023-05-07T12:23:20;48.40;39.31;65.69;;
74234;Laerm;62591;55.764;37.718;2023-05-07T12:25:49;47.53;40.21;53.59;;
74234;Laerm;62591;55.764;37.718;2023-05-07T12:28:18;47.64;39.60;58.11;;
74234;Laerm;62591;55.764;37.718;2023-05-07T12:30:48;48.31;40.05;66.11;;
74234;Laerm;62591;55.764;37.718;2023-05-07T12:33:17;50.45;43.38;66.11;;
74234;Laerm;62591;55.764;37.718;2023-05-07T12:35:48;51.80;44.30;73.07;;
74234;Laerm;62591;55.764;37.718;2023-05-07T12:38:19;52.42;39.38;60.92;;
74234;Laerm;62591;55.764;37.718;2023-05-07T12:40:49;49.75;38.60;69.78;;
74234;Laerm;62591;55.764;37.718;2023-05-07T12:43:19;49.85;40.43;61.69;;
74234;Laerm;62591;55.764;37.718;2023-05-07T12:45:50;47.82;41.09;61.02;;
74234;Laerm;62591;55.764;37.718;2023-05-07T12:48:19;45.88;39.56;56.41;;
74234;Laerm;62591;55.764;37.718;2023-05-07T12:50:49;52.15;40.13;64.60;;
74234;Laerm;62591;55.764;37.718;2023-05-07T12:53:21;50.15;40.46;66.17;;
74234;Laerm;62591;55.764;37.718;2023-05-07T12:55:51;48.11;42.46;54.70;;
74234;Laerm;62591;55.764;37.718;2023-05-07T12:58:21;49.80;41.54;58.78;;
74234;Laerm;62591;55.764;37.718;2023-05-07T13:00:51;46.92;40.36;53.00;;
74234;Laerm;62591;55.764;37.718;2023-05-07T13:03:22;48.65;41.57;55.15;;
74234;Laerm;62591;55.764;37.718;2023-05-07T13:05:51;50.11;44.14;57.23;;
74234;Laerm;62591;55.764;37.718;2023-05-07T13:08:27;47.52;39.83;59.80;;
74234;Laerm;62591;55.764;37.718;2023-05-07T13:10:56;46.59;39.47;55.74;;
74234;Laerm;62591;55.764;37.718;2023-05-07T13:13:25;45.56;38.86;52.90;;
74234;Laerm;62591;55.764;37.718;2023-05-07T13:15:57;48.93;39.83;61.58;;
74234;Laerm;62591;55.764;37.718;2023-05-07T13:18:28;46.22;40.46;55.94;;
74234;Laerm;62591;55.764;37.718;2023-05-07T13:20:58;47.75;38.63;54.43;;
74234;Laerm;62591;55.764;37.718;2023-05-07T13:23:28;44.94;37.83;52.90;;
74234;Laerm;62591;55.764;37.718;2023-05-07T13:25:57;45.83;39.23;56.04;;
74234;Laerm;62591;55.764;37.718;2023-05-07T13:28:30;50.09;38.71;60.19;;
74234;Laerm;62591;55.764;37.718;2023-05-07T13:30:58;44.57;36.70;55.65;;
74234;Laerm;62591;55.764;37.718;2023-05-07T13:33:27;48.40;40.68;57.83;;
74234;Laerm;62591;55.764;37.718;2023-05-07T13:35:55;46.10;39.61;55.16;;
74234;Laerm;62591;55.764;37.718;2023-05-07T13:38:25;45.58;40.06;54.04;;
74234;Laerm;62591;55.764;37.718;2023-05-07T13:40:55;47.30;41.23;55.72;;
74234;Laerm;62591;55.764;37.718;2023-05-07T13:43:24;47.68;40.02;62.41;;
74234;Laerm;62591;55.764;37.718;2023-05-07T13:45:52;46.54;38.83;58.98;;
74234;Laerm;62591;55.764;37.718;2023-05-07T13:48:21;45.66;39.50;54.01;;
74234;Laerm;62591;55.764;37.718;2023-05-07T13:50:50;49.33;40.16;66.60;;
74234;Laerm;62591;55.764;37.718;2023-05-07T13:53:18;47.63;39.12;64.96;;
74234;Laerm;62591;55.764;37.718;2023-05-07T13:55:47;46.62;40.05;54.31;;